Time;durP1;ratioP1;P1;durP2;ratioP2;P2;SDS_P1;SDS_P2;PMS_P1;PMS_P2;Temp;Humidity;BMP_temperature;BMP_pressure;BME280_temperature;BME280_humidity;BME280_pressure;Samples;Min_cycle;Max_cycle;Signal;HPM_P1;HPM_P2
2021/07/11 00:00:09;;;;;;;10.20;6.67;;;;;;;16.62;85.19;94783.39;1688513;84;21038;-51
2021/07/11 00:02:36;;;;;;;15.90;9.13;;;;;;;16.61;85.39;94789.42;1683500;85;21023;-50
2021/07/11 00:05:04;;;;;;;15.63;7.12;;;;;;;16.56;85.34;94785.31;1685186;84;21099;-51
2021/07/11 00:07:33;;;;;;;14.28;8.75;;;;;;;16.50;85.66;94791.42;1679024;84;20896;-54
2021/07/11 00:10:00;;;;;;;24.35;10.75;;;;;;;16.44;85.85;94788.42;1687280;83;21484;-51
2021/07/11 00:12:27;;;;;;;34.85;13.03;;;;;;;16.39;86.08;94780.78;1678557;85;21052;-51
2021/07/11 00:14:54;;;;;;;30.17;13.90;;;;;;;16.34;86.30;94787.00;1684277;84;21118;-52
2021/07/11 00:17:21;;;;;;;26.25;13.50;;;;;;;16.34;86.58;94782.84;1683067;83;21109;-51
2021/07/11 00:19:52;;;;;;;24.90;11.70;;;;;;;16.35;86.42;94783.00;1665430;84;21070;-51
2021/07/11 00:22:18;;;;;;;24.70;12.07;;;;;;;16.33;86.32;94785.47;1681129;84;21416;-51
2021/07/11 00:24:47;;;;;;;21.73;10.88;;;;;;;16.32;86.40;94780.53;1683501;83;21054;-51
2021/07/11 00:27:14;;;;;;;29.30;13.40;;;;;;;16.27;86.36;94781.83;1681790;84;21953;-50
2021/07/11 00:29:41;;;;;;;25.95;10.85;;;;;;;16.21;86.45;94786.55;1691971;84;21129;-52
2021/07/11 00:32:08;;;;;;;18.02;9.93;;;;;;;16.15;86.69;94787.09;1687771;83;21007;-53
2021/07/11 00:34:35;;;;;;;17.67;10.13;;;;;;;16.11;86.71;94789.28;1671466;84;21074;-52
2021/07/11 00:37:03;;;;;;;20.95;9.70;;;;;;;16.08;86.83;94786.72;1685582;84;21109;-52
2021/07/11 00:39:30;;;;;;;15.43;10.48;;;;;;;16.04;86.95;94793.85;1687605;83;21010;-52
2021/07/11 00:41:58;;;;;;;24.37;11.60;;;;;;;16.00;87.09;94789.73;1670403;84;22370;-52
2021/07/11 00:44:25;;;;;;;21.02;11.43;;;;;;;15.97;87.21;94787.31;1689232;83;21086;-52
2021/07/11 00:46:52;;;;;;;23.45;12.53;;;;;;;15.93;87.29;94790.14;1680648;84;20998;-51
2021/07/11 00:49:20;;;;;;;25.43;12.18;;;;;;;15.92;87.50;94785.83;1685112;84;21507;-51
2021/07/11 00:51:49;;;;;;;24.10;11.45;;;;;;;15.94;87.49;94791.67;1684525;84;21424;-51
2021/07/11 00:54:16;;;;;;;27.70;12.78;;;;;;;15.97;87.56;94790.70;1680831;84;21143;-51
2021/07/11 00:56:44;;;;;;;21.48;12.47;;;;;;;15.99;87.49;94791.77;1691412;83;21100;-51
2021/07/11 00:59:12;;;;;;;23.38;11.38;;;;;;;15.97;87.46;94787.31;1689394;83;21138;-52
2021/07/11 01:01:45;;;;;;;23.92;12.30;;;;;;;15.96;87.53;94788.56;1693194;83;21066;-52
2021/07/11 01:04:22;;;;;;;16.20;9.90;;;;;;;15.95;87.48;94788.39;1693558;83;21403;-53
2021/07/11 01:06:53;;;;;;;19.90;10.85;;;;;;;15.95;87.58;94782.84;1683805;84;21838;-51
2021/07/11 01:09:27;;;;;;;20.60;10.90;;;;;;;15.92;87.44;94790.75;1678515;85;20971;-50
2021/07/11 01:11:59;;;;;;;17.95;10.18;;;;;;;15.92;87.48;94792.77;1687741;83;21066;-50
2021/07/11 01:14:29;;;;;;;16.60;10.48;;;;;;;15.91;87.53;94787.83;1685191;84;21011;-50
2021/07/11 01:16:57;;;;;;;13.53;9.85;;;;;;;15.94;87.44;94784.09;1679504;84;21551;-50
2021/07/11 01:19:50;;;;;;;14.60;9.78;;;;;;;15.97;87.21;94783.16;1686980;84;20979;-50
2021/07/11 01:22:20;;;;;;;13.55;9.68;;;;;;;16.01;86.99;94785.11;1690379;83;20986;-51
2021/07/11 01:25:00;;;;;;;15.63;9.30;;;;;;;15.98;86.77;94787.45;1688413;83;21574;-51
2021/07/11 01:27:29;;;;;;;19.00;8.80;;;;;;;15.97;86.76;94788.70;1690684;83;21014;-52
2021/07/11 01:29:58;;;;;;;12.28;9.08;;;;;;;15.93;86.68;94781.81;1680016;84;21019;-52
2021/07/11 01:32:25;;;;;;;12.55;8.43;;;;;;;15.90;86.79;94784.91;1685597;83;21099;-51
2021/07/11 01:34:54;;;;;;;14.18;7.87;;;;;;;15.85;86.63;94785.59;1690595;83;21502;-52
2021/07/11 01:37:22;;;;;;;13.90;8.58;;;;;;;15.76;86.83;94780.14;1686114;84;21077;-51
2021/07/11 01:39:50;;;;;;;13.38;8.43;;;;;;;15.73;87.34;94779.72;1683460;84;21574;-51
2021/07/11 01:42:19;;;;;;;15.68;8.75;;;;;;;15.75;87.27;94787.56;1683192;84;21597;-52
2021/07/11 01:44:46;;;;;;;12.80;7.55;;;;;;;15.74;87.36;94781.24;1670049;84;21534;-51
2021/07/11 01:47:14;;;;;;;13.05;8.35;;;;;;;15.74;87.37;94778.47;1684920;84;21560;-51
2021/07/11 01:49:41;;;;;;;19.15;8.10;;;;;;;15.77;87.42;94786.47;1684012;83;21476;-50
2021/07/11 01:52:09;;;;;;;13.78;8.25;;;;;;;15.80;87.36;94781.34;1679018;84;21484;-51
2021/07/11 01:54:37;;;;;;;10.95;7.40;;;;;;;15.83;87.33;94781.16;1684916;84;21022;-50
2021/07/11 01:57:04;;;;;;;7.53;6.12;;;;;;;15.81;86.98;94777.32;1690229;83;21177;-53
2021/07/11 01:59:34;;;;;;;7.95;6.50;;;;;;;15.73;86.77;94783.12;1681081;84;21011;-51
2021/07/11 02:02:03;;;;;;;12.80;5.78;;;;;;;15.65;87.05;94786.13;1690195;83;21440;-51
2021/07/11 02:04:30;;;;;;;7.47;6.60;;;;;;;15.62;86.90;94782.31;1684146;84;20982;-51
2021/07/11 02:06:59;;;;;;;10.48;7.17;;;;;;;15.59;87.25;94781.89;1683055;83;21412;-51
2021/07/11 02:09:26;;;;;;;8.25;5.72;;;;;;;15.61;87.43;94781.39;1678469;84;21811;-51
2021/07/11 02:11:57;;;;;;;8.88;6.10;;;;;;;15.65;87.10;94780.58;1692543;83;21038;-51
2021/07/11 02:14:30;;;;;;;8.68;6.50;;;;;;;15.64;86.91;94782.60;1691648;83;21002;-51
2021/07/11 02:17:09;;;;;;;9.65;6.92;;;;;;;15.64;86.78;94790.92;1683610;83;21492;-51
2021/07/11 02:19:39;;;;;;;9.85;6.72;;;;;;;15.63;86.78;94783.06;1695232;83;21647;-52
2021/07/11 02:22:07;;;;;;;8.30;6.28;;;;;;;15.62;86.83;94778.16;1692433;83;21216;-52
2021/07/11 02:24:41;;;;;;;10.55;6.80;;;;;;;15.59;86.66;94785.27;1686136;83;21573;-51
2021/07/11 02:27:09;;;;;;;10.70;6.87;;;;;;;15.53;86.62;94792.10;1686912;84;20978;-52
2021/07/11 02:29:40;;;;;;;7.90;5.85;;;;;;;15.53;86.62;94792.10;1688131;83;21116;-51
2021/07/11 02:32:08;;;;;;;10.20;7.10;;;;;;;15.53;86.70;94794.87;1688666;84;20962;-53
2021/07/11 02:34:39;;;;;;;13.48;6.40;;;;;;;15.49;86.56;94799.85;1680856;84;21146;-52
2021/07/11 02:37:09;;;;;;;9.60;6.47;;;;;;;15.47;86.42;94800.95;1680444;84;21093;-51
2021/07/11 02:39:41;;;;;;;12.75;6.75;;;;;;;15.42;86.28;94793.31;1686285;84;21043;-51
2021/07/11 02:42:10;;;;;;;16.27;7.30;;;;;;;15.33;86.35;94796.16;1683638;84;21572;-51
2021/07/11 02:44:38;;;;;;;22.82;12.37;;;;;;;15.28;86.68;94798.18;1688771;83;21055;-51
2021/07/11 02:47:13;;;;;;;23.50;11.43;;;;;;;15.24;87.24;94794.83;1692078;83;22335;-52
2021/07/11 02:49:46;;;;;;;20.48;10.58;;;;;;;15.25;87.76;94800.52;1678596;84;20976;-52
2021/07/11 02:52:13;;;;;;;20.75;11.30;;;;;;;15.27;87.80;94798.03;1693855;83;22113;-52
2021/07/11 02:54:57;;;;;;;27.70;14.40;;;;;;;15.27;87.84;94808.34;1680902;83;21144;-52
2021/07/11 02:57:26;;;;;;;;;;;;;;;15.24;88.05;94803.75;1692784;83;21003;-53
2021/07/11 02:59:54;;;;;;;25.10;12.98;;;;;;;15.26;88.38;94804.05;1690298;83;21212;-51
2021/07/11 03:02:24;;;;;;;29.82;13.70;;;;;;;15.28;88.57;94797.40;1690719;83;20995;-52
2021/07/11 03:04:53;;;;;;;23.27;12.68;;;;;;;15.35;88.89;94804.75;1685141;84;20972;-52
2021/07/11 03:07:20;;;;;;;28.55;14.80;;;;;;;15.45;88.60;94804.83;1678592;85;20980;-52
2021/07/11 03:09:47;;;;;;;31.55;15.85;;;;;;;15.53;88.42;94799.03;1690713;83;21495;-50
2021/07/11 03:12:16;;;;;;;27.60;14.53;;;;;;;15.60;88.41;94800.06;1689899;83;21201;-51
2021/07/11 03:14:45;;;;;;;25.27;12.85;;;;;;;15.68;88.41;94796.25;1679596;84;20959;-50
2021/07/11 03:17:15;;;;;;;33.55;14.18;;;;;;;15.73;88.36;94794.22;1686490;84;20975;-51
2021/07/11 03:19:44;;;;;;;19.35;11.18;;;;;;;15.78;88.29;94794.93;1683085;84;20970;-51
2021/07/11 03:22:12;;;;;;;24.70;10.13;;;;;;;15.84;87.94;94800.72;1690298;83;21420;-52
2021/07/11 03:24:40;;;;;;;16.75;9.38;;;;;;;15.86;87.79;94800.22;1687504;84;20944;-52
2021/07/11 03:27:10;;;;;;;11.60;8.78;;;;;;;15.92;87.73;94796.30;1681912;84;21426;-51
2021/07/11 03:30:02;;;;;;;16.27;8.63;;;;;;;15.96;87.31;94798.27;1689780;83;20998;-51
2021/07/11 03:32:33;;;;;;;10.57;7.83;;;;;;;15.99;87.47;94800.70;1689378;84;21020;-51
2021/07/11 03:35:01;;;;;;;10.20;8.30;;;;;;;16.07;87.28;94792.88;1679473;84;20968;-51
2021/07/11 03:37:31;;;;;;;16.82;9.10;;;;;;;16.17;87.14;94795.70;1683519;84;21083;-51
2021/07/11 03:39:58;;;;;;;11.00;7.65;;;;;;;16.25;86.83;94791.27;1668444;83;21508;-51
2021/07/11 03:42:26;;;;;;;12.58;9.20;;;;;;;16.33;86.39;94800.75;1698836;83;21165;-51
2021/07/11 03:44:58;;;;;;;10.53;9.05;;;;;;;16.36;86.04;94793.61;1691601;84;21081;-53
2021/07/11 03:47:29;;;;;;;10.93;8.35;;;;;;;16.38;85.95;94793.89;1682564;84;20934;-51
2021/07/11 03:49:56;;;;;;;14.30;8.73;;;;;;;16.42;85.70;94790.31;1690375;83;21843;-50
2021/07/11 03:52:26;;;;;;;14.05;8.95;;;;;;;16.50;85.62;94794.81;1663495;84;21404;-53
2021/07/11 03:54:53;;;;;;;17.57;8.43;;;;;;;16.56;85.24;94795.67;1689024;83;21027;-50
2021/07/11 03:57:19;;;;;;;14.63;8.40;;;;;;;16.58;84.97;94791.14;1690240;83;21429;-51
2021/07/11 03:59:46;;;;;;;10.55;7.15;;;;;;;16.63;84.83;94793.86;1636632;85;21082;-51
2021/07/11 04:02:13;;;;;;;8.98;7.50;;;;;;;16.65;84.65;94794.14;1679053;84;21125;-51
2021/07/11 04:04:40;;;;;;;13.65;8.33;;;;;;;16.66;84.48;94790.11;1686444;83;21002;-51
2021/07/11 04:07:08;;;;;;;13.98;8.33;;;;;;;16.66;84.48;94790.89;1667653;85;21007;-51
2021/07/11 04:09:34;;;;;;;13.50;8.10;;;;;;;16.67;84.59;94795.80;1690635;83;21597;-51
2021/07/11 04:12:04;;;;;;;12.05;8.45;;;;;;;16.71;84.71;94796.39;1681512;84;20964;-51
2021/07/11 04:14:31;;;;;;;11.88;7.35;;;;;;;16.78;84.67;94786.23;1685968;84;21978;-52
2021/07/11 04:17:04;;;;;;;15.20;8.78;;;;;;;16.86;84.51;94788.12;1668791;84;21078;-51
2021/07/11 04:19:36;;;;;;;12.75;8.28;;;;;;;16.93;84.29;94786.94;1681675;84;20956;-51
2021/07/11 04:22:03;;;;;;;11.08;8.48;;;;;;;16.96;84.11;94782.56;1689517;83;21443;-51
2021/07/11 04:24:32;;;;;;;13.45;8.83;;;;;;;17.01;84.13;94784.64;1681985;84;20968;-51
2021/07/11 04:26:59;;;;;;;11.12;7.62;;;;;;;17.09;83.93;94782.95;1689498;84;21157;-51
2021/07/11 04:29:28;;;;;;;16.40;8.95;;;;;;;17.21;83.80;94780.45;1683282;84;21150;-51
2021/07/11 04:31:55;;;;;;;9.98;8.15;;;;;;;17.29;83.52;94782.18;1691166;83;21105;-51
2021/07/11 04:34:30;;;;;;;12.88;7.72;;;;;;;17.35;83.27;94785.80;1693074;83;21078;-51
2021/07/11 04:36:59;;;;;;;11.68;7.53;;;;;;;17.38;83.09;94782.81;1685082;84;21050;-53
2021/07/11 04:39:27;;;;;;;10.25;6.95;;;;;;;17.45;82.99;94785.80;1687728;84;21142;-52
2021/07/11 04:41:55;;;;;;;12.47;7.90;;;;;;;17.48;82.81;94782.78;1665017;84;37685;-52
2021/07/11 04:44:27;;;;;;;10.95;7.67;;;;;;;17.53;82.61;94782.09;1687649;84;21003;-52
2021/07/11 04:46:55;;;;;;;12.93;8.00;;;;;;;17.57;82.54;94786.80;1691095;83;21553;-52
2021/07/11 04:49:24;;;;;;;13.25;7.28;;;;;;;17.61;82.31;94786.59;1681171;84;20975;-52
2021/07/11 04:51:53;;;;;;;12.47;7.33;;;;;;;17.66;82.11;94786.63;1667765;84;21208;-53
2021/07/11 04:54:19;;;;;;;14.73;7.87;;;;;;;17.69;81.95;94781.49;1687729;84;21003;-51
2021/07/11 04:56:46;;;;;;;11.03;8.45;;;;;;;17.72;81.88;94779.73;1681955;84;21149;-51
2021/07/11 04:59:12;;;;;;;9.35;7.05;;;;;;;17.82;81.76;94782.48;1682201;84;21002;-51
2021/07/11 05:01:40;;;;;;;11.60;7.12;;;;;;;17.92;81.54;94778.25;1693933;83;21011;-51
2021/07/11 05:04:07;;;;;;;9.10;7.50;;;;;;;17.99;81.02;94779.97;1682693;84;21134;-52
2021/07/11 05:06:34;;;;;;;13.05;6.62;;;;;;;18.06;80.60;94782.94;1683985;83;21002;-52
2021/07/11 05:09:00;;;;;;;8.80;6.67;;;;;;;18.11;80.31;94775.24;1685598;84;21564;-52
2021/07/11 05:11:27;;;;;;;12.23;6.80;;;;;;;18.17;79.98;94774.68;1679231;84;21055;-52
2021/07/11 05:13:54;;;;;;;9.35;6.50;;;;;;;18.22;79.66;94774.08;1680840;84;21082;-52
2021/07/11 05:16:21;;;;;;;8.58;6.67;;;;;;;18.30;79.25;94779.34;1696144;83;21896;-52
2021/07/11 05:18:49;;;;;;;12.93;6.85;;;;;;;18.33;79.04;94778.99;1685504;84;21098;-51
2021/07/11 05:21:17;;;;;;;8.75;6.30;;;;;;;18.36;79.03;94771.81;1678481;84;21086;-52
2021/07/11 05:23:43;;;;;;;12.37;6.22;;;;;;;18.45;78.91;94777.17;1679728;84;21124;-52
2021/07/11 05:26:12;;;;;;;11.78;7.50;;;;;;;18.52;78.71;94778.73;1684098;84;21100;-52
2021/07/11 05:28:40;;;;;;;10.70;7.95;;;;;;;18.58;78.34;94778.91;1678390;84;21048;-52
2021/07/11 05:31:08;;;;;;;18.48;8.40;;;;;;;18.64;78.05;94776.16;1679706;84;21479;-52
2021/07/11 05:33:34;;;;;;;10.45;7.05;;;;;;;18.71;77.70;94770.88;1678584;84;21095;-52
2021/07/11 05:36:01;;;;;;;13.13;8.30;;;;;;;18.77;77.53;94769.48;1689219;83;21459;-52
2021/07/11 05:38:27;;;;;;;12.78;7.85;;;;;;;18.82;77.27;94761.16;1686939;83;21010;-52
2021/07/11 05:40:54;;;;;;;14.87;7.92;;;;;;;18.88;77.34;94764.76;1688741;83;21155;-52
2021/07/11 05:43:21;;;;;;;15.35;7.58;;;;;;;18.96;76.82;94765.80;1680820;85;21011;-52
2021/07/11 05:45:47;;;;;;;12.53;7.58;;;;;;;18.99;76.75;94762.00;1681660;84;20975;-53
2021/07/11 05:48:14;;;;;;;11.97;8.15;;;;;;;19.02;76.52;94758.20;1667706;84;22008;-53
2021/07/11 05:50:41;;;;;;;12.82;8.90;;;;;;;19.03;76.50;94754.15;1667295;83;21002;-52
2021/07/11 05:53:10;;;;;;;11.43;8.45;;;;;;;19.09;76.62;94754.17;1681918;84;21542;-53
2021/07/11 05:55:38;;;;;;;16.25;10.98;;;;;;;19.18;76.15;94751.95;1680864;84;21047;-52
2021/07/11 05:58:06;;;;;;;12.93;8.03;;;;;;;19.28;75.87;94744.89;1664967;84;21073;-54
2021/07/11 06:00:33;;;;;;;13.85;9.38;;;;;;;19.37;75.80;94750.23;1690267;84;20985;-53
2021/07/11 06:03:03;;;;;;;14.53;8.60;;;;;;;19.46;75.32;94747.22;1688061;83;21217;-52
2021/07/11 06:05:31;;;;;;;16.73;10.08;;;;;;;19.49;75.17;94746.83;1687162;83;21433;-51
2021/07/11 06:07:59;;;;;;;14.40;9.00;;;;;;;19.53;74.98;94746.72;1690863;83;20963;-55
2021/07/11 06:10:26;;;;;;;13.28;8.88;;;;;;;19.58;74.73;94749.40;1686394;84;21075;-52
2021/07/11 06:12:53;;;;;;;12.18;9.43;;;;;;;19.65;74.67;94751.06;1687069;84;20991;-52
2021/07/11 06:15:20;;;;;;;12.50;9.60;;;;;;;19.70;74.54;94745.36;1685539;84;21011;-53
2021/07/11 06:17:46;;;;;;;16.15;10.68;;;;;;;19.74;75.08;94750.80;1684622;84;21146;-51
2021/07/11 06:20:14;;;;;;;15.78;10.78;;;;;;;19.80;74.87;94743.22;1682596;84;20974;-52
2021/07/11 06:22:44;;;;;;;19.12;11.50;;;;;;;19.85;74.73;94742.45;1681190;84;21443;-53
2021/07/11 06:25:14;;;;;;;25.72;14.65;;;;;;;19.89;75.02;94736.62;1678502;84;20980;-53
2021/07/11 06:27:45;;;;;;;20.02;13.05;;;;;;;19.88;75.43;94734.45;1686364;83;21058;-52
2021/07/11 06:30:15;;;;;;;28.83;18.42;;;;;;;19.91;76.05;94739.66;1671028;84;21843;-52
2021/07/11 06:32:45;;;;;;;23.67;16.73;;;;;;;19.93;76.32;94732.28;1683844;83;22120;-53
2021/07/11 06:35:15;;;;;;;19.98;14.30;;;;;;;20.01;76.42;94732.54;1694086;83;21109;-52
2021/07/11 06:37:41;;;;;;;25.82;17.52;;;;;;;20.07;76.26;94725.72;1687279;84;21015;-53
2021/07/11 06:40:10;;;;;;;24.65;17.25;;;;;;;20.10;76.09;94724.69;1690103;83;21038;-53
2021/07/11 06:42:38;;;;;;;24.80;14.80;;;;;;;20.15;76.11;94721.13;1677786;83;21141;-52
2021/07/11 06:45:08;;;;;;;23.73;17.15;;;;;;;20.25;75.95;94723.79;1693130;83;21079;-53
2021/07/11 06:47:36;;;;;;;19.70;14.58;;;;;;;20.32;75.92;94719.07;1680965;84;21519;-53
2021/07/11 06:50:13;;;;;;;29.82;17.92;;;;;;;20.44;75.88;94717.79;1689295;83;21316;-52
2021/07/11 06:52:44;;;;;;;32.63;18.57;;;;;;;20.58;75.95;94709.10;1688950;83;21003;-53
2021/07/11 06:55:13;;;;;;;23.02;16.55;;;;;;;20.73;75.67;94710.22;1685964;84;21157;-51
2021/07/11 06:57:43;;;;;;;27.67;16.67;;;;;;;20.86;75.03;94709.81;1681334;84;20943;-53
2021/07/11 07:00:13;;;;;;;17.75;13.32;;;;;;;20.99;74.61;94708.62;1684429;84;20970;-53
2021/07/11 07:02:44;;;;;;;21.10;14.90;;;;;;;21.13;74.12;94717.97;1693137;83;20987;-52
2021/07/11 07:05:15;;;;;;;27.90;15.30;;;;;;;21.20;73.68;94716.01;1687645;83;20959;-53
2021/07/11 07:07:43;;;;;;;25.52;15.65;;;;;;;21.27;73.64;94715.48;1678740;84;21079;-53
2021/07/11 07:10:17;;;;;;;21.07;15.43;;;;;;;21.36;73.19;94703.97;1686634;83;21085;-53
2021/07/11 07:12:45;;;;;;;22.58;14.78;;;;;;;21.44;73.08;94702.16;1666138;84;21102;-54
2021/07/11 07:15:16;;;;;;;22.30;13.20;;;;;;;21.49;72.90;94703.50;1693283;83;20991;-54
2021/07/11 07:17:45;;;;;;;20.85;14.00;;;;;;;21.60;72.65;94711.06;1693720;83;20955;-52
2021/07/11 07:20:13;;;;;;;16.35;13.10;;;;;;;21.70;72.38;94713.70;1666783;85;21189;-54
2021/07/11 07:22:44;;;;;;;15.38;12.93;;;;;;;21.80;72.03;94708.66;1666666;84;21304;-54
2021/07/11 07:25:19;;;;;;;18.32;13.53;;;;;;;21.93;71.42;94703.84;1689519;83;21130;-54
2021/07/11 07:27:47;;;;;;;22.13;13.53;;;;;;;22.03;70.92;94699.56;1680595;83;21031;-53
2021/07/11 07:30:15;;;;;;;21.52;13.68;;;;;;;22.15;70.35;94705.17;1688314;84;20954;-53
2021/07/11 07:32:50;;;;;;;20.48;13.43;;;;;;;22.30;69.76;94708.34;1662742;84;21832;-51
2021/07/11 07:35:22;;;;;;;17.37;13.20;;;;;;;22.43;69.29;94702.91;1681978;85;21089;-53
2021/07/11 07:37:56;;;;;;;22.42;13.62;;;;;;;22.56;68.83;94702.27;1682184;84;21592;-54
2021/07/11 07:40:23;;;;;;;16.90;13.72;;;;;;;22.68;68.61;94702.27;1657486;85;20987;-52
2021/07/11 07:42:54;;;;;;;19.30;13.90;;;;;;;22.77;68.26;94695.66;1661994;84;21652;-52
2021/07/11 07:45:21;;;;;;;16.93;12.78;;;;;;;22.89;68.05;94695.66;1684113;84;21211;-51
2021/07/11 07:47:51;;;;;;;18.98;11.97;;;;;;;23.01;67.35;94690.00;1674079;84;21103;-51
2021/07/11 07:50:22;;;;;;;20.80;10.78;;;;;;;23.14;66.99;94691.53;1659356;84;21061;-53
2021/07/11 07:52:51;;;;;;;19.50;11.90;;;;;;;23.34;65.91;94689.60;1668917;83;21029;-50
2021/07/11 07:55:19;;;;;;;12.82;8.75;;;;;;;23.54;65.03;94690.47;1688869;84;21061;-52
2021/07/11 07:57:46;;;;;;;12.85;9.30;;;;;;;23.73;63.21;94689.80;1638142;85;21110;-52
2021/07/11 08:00:14;;;;;;;11.50;7.72;;;;;;;23.95;61.60;94683.84;1684988;84;21026;-54
2021/07/11 08:02:41;;;;;;;14.50;8.68;;;;;;;24.16;60.15;94682.73;1643609;85;20961;-53
2021/07/11 08:05:09;;;;;;;12.03;7.83;;;;;;;24.34;59.25;94679.73;1689755;83;21010;-55
2021/07/11 08:07:36;;;;;;;10.80;7.90;;;;;;;24.52;58.58;94683.14;1690979;83;21057;-53
2021/07/11 08:10:08;;;;;;;11.00;7.83;;;;;;;24.63;57.43;94678.09;1686624;83;21150;-51
2021/07/11 08:12:35;;;;;;;14.50;8.57;;;;;;;24.77;57.88;94680.25;1683709;83;21069;-53
2021/07/11 08:15:06;;;;;;;11.18;7.58;;;;;;;24.87;56.03;94675.69;1685321;84;21031;-52
2021/07/11 08:17:33;;;;;;;8.58;7.37;;;;;;;24.93;55.30;94669.31;1686792;84;20983;-54
2021/07/11 08:20:00;;;;;;;11.35;8.33;;;;;;;25.01;54.35;94669.52;1686233;84;21116;-52
2021/07/11 08:22:29;;;;;;;9.10;6.83;;;;;;;25.10;54.70;94678.92;1670165;84;21070;-53
2021/07/11 08:24:55;;;;;;;9.80;7.10;;;;;;;25.20;52.72;94676.45;1692986;83;21065;-54
2021/07/11 08:27:24;;;;;;;9.43;7.65;;;;;;;25.29;52.59;94675.34;1690994;83;21091;-51
2021/07/11 08:29:51;;;;;;;10.60;7.42;;;;;;;25.34;52.26;94674.46;1687821;83;21493;-54
2021/07/11 08:32:19;;;;;;;7.17;6.05;;;;;;;25.42;52.67;94678.78;1679286;84;21070;-55
2021/07/11 08:34:46;;;;;;;19.45;7.35;;;;;;;25.54;51.45;94672.38;1686184;83;21150;-52
2021/07/11 08:37:13;;;;;;;10.38;6.05;;;;;;;25.66;50.25;94667.98;1680795;83;21027;-52
2021/07/11 08:39:41;;;;;;;10.32;6.15;;;;;;;25.80;50.62;94673.68;1687337;84;21506;-54
2021/07/11 08:42:11;;;;;;;8.03;5.92;;;;;;;25.93;51.95;94671.59;1682061;84;21084;-52
2021/07/11 08:44:38;;;;;;;10.65;6.22;;;;;;;26.09;51.59;94670.42;1685589;84;21505;-53
2021/07/11 08:47:05;;;;;;;13.55;6.17;;;;;;;26.20;50.73;94670.80;1691446;84;21145;-54
2021/07/11 08:49:32;;;;;;;7.97;5.78;;;;;;;26.29;48.57;94659.78;1685806;84;21038;-55
2021/07/11 08:52:00;;;;;;;10.23;6.47;;;;;;;26.34;50.30;94658.87;1673187;84;21078;-53
2021/07/11 08:54:27;;;;;;;7.20;5.92;;;;;;;26.47;49.44;94658.80;1687277;83;21057;-52
2021/07/11 08:57:09;;;;;;;10.25;6.40;;;;;;;26.61;51.82;94665.91;1688096;83;21061;-53
2021/07/11 08:59:40;;;;;;;11.15;6.33;;;;;;;26.74;49.70;94667.23;1686129;84;21183;-53
2021/07/11 09:02:07;;;;;;;8.50;6.03;;;;;;;26.88;49.72;94659.40;1685397;83;20975;-52
2021/07/11 09:04:45;;;;;;;8.13;6.42;;;;;;;26.98;48.42;94661.80;1691754;83;21608;-51
2021/07/11 09:07:21;;;;;;;12.43;7.15;;;;;;;27.04;47.71;94657.50;1691841;83;21049;-52
2021/07/11 09:09:58;;;;;;;11.08;7.12;;;;;;;27.12;46.38;94653.34;1697686;84;21105;-52
2021/07/11 09:12:26;;;;;;;7.45;6.08;;;;;;;27.09;45.92;94654.42;1689010;83;21125;-54
2021/07/11 09:14:53;;;;;;;11.55;7.25;;;;;;;27.04;46.02;94649.03;1691384;84;20954;-56
2021/07/11 09:17:20;;;;;;;8.83;6.85;;;;;;;27.04;46.55;94642.64;1690136;84;21027;-54
2021/07/11 09:19:50;;;;;;;11.83;6.53;;;;;;;27.10;47.89;94652.50;1688594;83;21011;-52
2021/07/11 09:22:24;;;;;;;8.68;6.97;;;;;;;27.21;46.82;94625.31;1680189;84;21074;-53
2021/07/11 09:24:54;;;;;;;8.33;6.80;;;;;;;27.34;47.53;94629.43;1688720;84;21138;-53
2021/07/11 09:27:28;;;;;;;10.03;6.95;;;;;;;27.54;49.04;94632.02;1692656;84;21065;-56
2021/07/11 09:30:00;;;;;;;10.63;6.33;;;;;;;27.70;47.99;94634.99;1689946;84;21026;-52
2021/07/11 09:32:31;;;;;;;11.00;6.90;;;;;;;27.78;47.66;94635.14;1687793;84;21413;-51
2021/07/11 09:35:15;;;;;;;9.05;6.45;;;;;;;27.92;47.77;94633.66;1689892;84;21021;-54
2021/07/11 09:37:47;;;;;;;10.32;6.92;;;;;;;28.00;45.01;94630.20;1685753;84;21170;-52
2021/07/11 09:40:15;;;;;;;9.73;7.28;;;;;;;28.04;43.35;94624.92;1681758;84;21078;-53
2021/07/11 09:42:48;;;;;;;8.45;6.75;;;;;;;28.07;45.86;94623.11;1682064;84;21030;-53
2021/07/11 09:45:23;;;;;;;7.33;6.50;;;;;;;28.22;46.94;94631.61;1687605;84;21034;-52
2021/07/11 09:47:54;;;;;;;13.60;7.50;;;;;;;28.32;45.66;94623.34;1691367;84;21691;-52
2021/07/11 09:50:24;;;;;;;11.10;6.72;;;;;;;28.34;44.50;94627.77;1683407;84;21027;-55
2021/07/11 09:52:56;;;;;;;8.18;6.55;;;;;;;28.40;45.33;94619.19;1684954;84;21434;-53
2021/07/11 09:55:29;;;;;;;7.87;6.58;;;;;;;28.50;44.74;94617.30;1681899;84;21419;-52
2021/07/11 09:58:03;;;;;;;9.30;6.80;;;;;;;28.61;45.39;94619.73;1687206;84;21036;-51
2021/07/11 10:00:40;;;;;;;10.88;7.08;;;;;;;28.74;45.74;94621.63;1685332;84;21009;-55
2021/07/11 10:03:12;;;;;;;12.78;7.20;;;;;;;28.88;45.60;94621.48;1691589;84;21117;-52
2021/07/11 10:05:41;;;;;;;12.53;7.12;;;;;;;29.04;43.80;94624.39;1688234;84;21026;-53
2021/07/11 10:08:09;;;;;;;11.48;7.40;;;;;;;29.09;44.42;94627.68;1685308;84;21038;-53
2021/07/11 10:10:38;;;;;;;15.18;7.72;;;;;;;29.09;44.86;94625.61;1685754;84;21010;-56
2021/07/11 10:13:07;;;;;;;9.50;7.37;;;;;;;29.11;43.26;94627.20;1690237;84;21082;-53
2021/07/11 10:15:36;;;;;;;12.75;7.87;;;;;;;29.17;45.30;94627.01;1692049;84;21124;-51
2021/07/11 10:18:06;;;;;;;9.73;7.22;;;;;;;29.16;44.84;94623.41;1680198;85;21094;-53
2021/07/11 10:20:40;;;;;;;11.00;7.37;;;;;;;29.10;44.73;94629.22;1685875;84;21198;-55
2021/07/11 10:23:09;;;;;;;9.93;7.00;;;;;;;28.91;44.89;94628.89;1690221;83;21066;-53
2021/07/11 10:25:36;;;;;;;8.45;6.62;;;;;;;28.87;42.95;94627.05;1689081;84;21065;-53
2021/07/11 10:28:12;;;;;;;8.25;7.22;;;;;;;28.93;45.65;94631.22;1681995;84;21132;-51
2021/07/11 10:30:46;;;;;;;12.07;8.05;;;;;;;29.05;46.05;94627.31;1692385;84;21438;-55
2021/07/11 10:33:21;;;;;;;11.30;8.33;;;;;;;29.25;46.99;94627.08;1689058;84;21121;-53
2021/07/11 10:35:58;;;;;;;12.47;8.48;;;;;;;29.42;45.98;94627.84;1686087;84;21037;-54
2021/07/11 10:38:39;;;;;;;8.73;7.67;;;;;;;29.63;46.62;94628.34;1692927;84;20974;-51
2021/07/11 10:41:19;;;;;;;16.95;7.33;;;;;;;29.86;46.86;94631.14;1693000;84;21141;-51
2021/07/11 10:43:59;;;;;;;17.95;8.38;;;;;;;30.19;45.89;94625.56;1661973;84;21517;-52
2021/07/11 10:46:31;;;;;;;12.20;8.28;;;;;;;30.32;43.83;94628.13;1645274;86;21050;-53
2021/07/11 10:49:22;;;;;;;11.90;7.50;;;;;;;30.12;43.99;94629.96;1653647;85;21553;-58
2021/07/11 10:51:58;;;;;;;9.93;6.60;;;;;;;29.81;43.76;94629.30;1693730;83;20994;-54
2021/07/11 10:54:34;;;;;;;10.70;7.35;;;;;;;29.90;45.36;94625.16;1690018;83;21945;-55
2021/07/11 10:57:22;;;;;;;8.78;7.55;;;;;;;30.11;45.10;94624.20;1695032;83;21135;-55
2021/07/11 10:59:49;;;;;;;11.73;7.25;;;;;;;30.45;43.21;94630.00;1680857;83;21038;-53
2021/07/11 11:02:19;;;;;;;9.80;6.58;;;;;;;30.82;44.26;94624.67;1637683;85;21061;-53
2021/07/11 11:05:02;;;;;;;8.55;6.20;;;;;;;31.16;43.67;94624.72;1684946;84;21138;-56
2021/07/11 11:07:48;;;;;;;8.25;6.60;;;;;;;31.47;41.05;94613.08;1684702;84;21901;-52
2021/07/11 11:10:26;;;;;;;9.83;5.95;;;;;;;31.71;41.10;94612.87;1682650;84;21014;-54
2021/07/11 11:13:17;;;;;;;9.00;6.12;;;;;;;31.95;41.99;94614.15;1684276;84;21030;-54
2021/07/11 11:15:51;;;;;;;6.87;6.15;;;;;;;32.15;40.77;94604.36;1689202;83;21588;-54
2021/07/11 11:18:29;;;;;;;9.40;6.12;;;;;;;32.45;40.76;94598.22;1648938;86;21072;-53
2021/07/11 11:21:14;;;;;;;8.55;5.65;;;;;;;32.70;38.92;94600.95;1639660;86;21505;-53
2021/07/11 11:23:54;;;;;;;8.35;6.10;;;;;;;32.91;37.68;94600.37;1688556;83;21403;-57
2021/07/11 11:26:26;;;;;;;9.05;5.72;;;;;;;33.16;37.50;94595.16;1682741;83;21100;-54
2021/07/11 11:28:56;;;;;;;8.60;5.45;;;;;;;33.45;36.10;94601.62;1688461;83;21026;-54
2021/07/11 11:31:32;;;;;;;9.33;4.80;;;;;;;33.73;35.21;94594.48;1681678;84;20976;-55
2021/07/11 11:34:10;;;;;;;8.93;4.87;;;;;;;33.99;35.13;94598.55;1686198;84;21158;-54
2021/07/11 11:36:48;;;;;;;7.20;4.67;;;;;;;34.20;35.38;94596.50;1683499;83;20969;-54